sensor_id;sensor_type;location;lat;lon;timestamp;pressure;altitude;pressure_sealevel;temperature;humidity
50696;BME280;36665;51.786;21.594;2023-04-20T00:05:05;95091.41;;;7.33;70.54
50696;BME280;36665;51.786;21.594;2023-04-20T00:13:29;95093.95;;;7.33;70.61
50696;BME280;36665;51.786;21.594;2023-04-20T00:21:53;95101.37;;;7.36;70.67
50696;BME280;36665;51.786;21.594;2023-04-20T00:30:16;95109.41;;;7.38;70.67
50696;BME280;36665;51.786;21.594;2023-04-20T00:38:39;95140.92;;;7.47;70.52
50696;BME280;36665;51.786;21.594;2023-04-20T00:47:02;95138.88;;;7.46;70.77
50696;BME280;36665;51.786;21.594;2023-04-20T00:55:29;95152.27;;;7.50;70.91
50696;BME280;36665;51.786;21.594;2023-04-20T01:03:52;95191.20;;;7.59;70.84
50696;BME280;36665;51.786;21.594;2023-04-20T01:12:16;95214.92;;;7.64;70.65
50696;BME280;36665;51.786;21.594;2023-04-20T01:20:39;95223.30;;;7.67;70.87
50696;BME280;36665;51.786;21.594;2023-04-20T01:29:02;95246.83;;;7.73;70.75
50696;BME280;36665;51.786;21.594;2023-04-20T01:37:25;95287.61;;;7.84;70.72
50696;BME280;36665;51.786;21.594;2023-04-20T01:45:48;95308.29;;;7.89;70.84
50696;BME280;36665;51.786;21.594;2023-04-20T01:54:11;95298.02;;;7.87;70.79
50696;BME280;36665;51.786;21.594;2023-04-20T02:02:34;95303.61;;;7.88;70.85
50696;BME280;36665;51.786;21.594;2023-04-20T02:10:57;95310.67;;;7.90;70.98
50696;BME280;36665;51.786;21.594;2023-04-20T02:19:20;95295.31;;;7.86;71.03
50696;BME280;36665;51.786;21.594;2023-04-20T02:27:44;95279.10;;;7.81;71.02
50696;BME280;36665;51.786;21.594;2023-04-20T02:36:07;95275.36;;;7.81;70.95
50696;BME280;36665;51.786;21.594;2023-04-20T02:44:30;95276.00;;;7.81;70.96
50696;BME280;36665;51.786;21.594;2023-04-20T02:52:53;95261.89;;;7.77;71.01
50696;BME280;36665;51.786;21.594;2023-04-20T03:01:17;95230.16;;;7.69;71.00
50696;BME280;36665;51.786;21.594;2023-04-20T03:09:42;95215.81;;;7.64;71.04
50696;BME280;36665;51.786;21.594;2023-04-20T03:18:11;95221.48;;;7.65;71.17
50696;BME280;36665;51.786;21.594;2023-04-20T03:26:35;95216.17;;;7.64;71.11
50696;BME280;36665;51.786;21.594;2023-04-20T03:35:08;95200.77;;;7.60;70.89
50696;BME280;36665;51.786;21.594;2023-04-20T03:43:32;95203.51;;;7.61;71.15
50696;BME280;36665;51.786;21.594;2023-04-20T03:51:55;95233.22;;;7.69;71.08
50696;BME280;36665;51.786;21.594;2023-04-20T04:00:18;95251.16;;;7.75;71.13
50696;BME280;36665;51.786;21.594;2023-04-20T04:08:41;95243.80;;;7.73;71.07
50696;BME280;36665;51.786;21.594;2023-04-20T04:17:05;95254.50;;;7.75;71.11
50696;BME280;36665;51.786;21.594;2023-04-20T04:25:32;95287.40;;;7.84;71.21
50696;BME280;36665;51.786;21.594;2023-04-20T04:33:56;95311.44;;;7.90;71.24
50696;BME280;36665;51.786;21.594;2023-04-20T04:42:25;95344.95;;;7.99;71.17
50696;BME280;36665;51.786;21.594;2023-04-20T04:50:50;95389.39;;;8.10;71.35
50696;BME280;36665;51.786;21.594;2023-04-20T04:59:13;95427.19;;;8.19;71.26
50696;BME280;36665;51.786;21.594;2023-04-20T05:07:37;95474.27;;;8.30;71.38
50696;BME280;36665;51.786;21.594;2023-04-20T05:16:02;95574.66;;;8.56;71.47
50696;BME280;36665;51.786;21.594;2023-04-20T05:24:25;95685.58;;;8.85;71.65
50696;BME280;36665;51.786;21.594;2023-04-20T05:32:49;95751.98;;;9.03;71.77
50696;BME280;36665;51.786;21.594;2023-04-20T05:41:14;95830.86;;;9.22;71.77
50696;BME280;36665;51.786;21.594;2023-04-20T05:49:37;95928.64;;;9.47;71.71
50696;BME280;36665;51.786;21.594;2023-04-20T05:58:01;96047.89;;;9.76;71.97
50696;BME280;36665;51.786;21.594;2023-04-20T06:06:24;96197.87;;;10.14;71.95
50696;BME280;36665;51.786;21.594;2023-04-20T06:14:48;96358.23;;;10.55;72.01
50696;BME280;36665;51.786;21.594;2023-04-20T06:23:11;96497.71;;;10.90;72.09
50696;BME280;36665;51.786;21.594;2023-04-20T06:31:34;96668.11;;;11.32;72.17
50696;BME280;36665;51.786;21.594;2023-04-20T06:39:57;96889.32;;;11.89;72.21
50696;BME280;36665;51.786;21.594;2023-04-20T06:48:21;97201.81;;;12.66;72.31
50696;BME280;36665;51.786;21.594;2023-04-20T06:56:53;97428.19;;;13.19;72.39
50696;BME280;36665;51.786;21.594;2023-04-20T07:05:18;97357.00;;;13.03;72.43
50696;BME280;36665;51.786;21.594;2023-04-20T07:13:41;97315.20;;;12.91;72.37
50696;BME280;36665;51.786;21.594;2023-04-20T07:22:04;97318.16;;;12.93;72.34
50696;BME280;36665;51.786;21.594;2023-04-20T07:30:27;97377.80;;;13.07;72.33
50696;BME280;36665;51.786;21.594;2023-04-20T07:38:50;97612.64;;;13.65;72.47
50696;BME280;36665;51.786;21.594;2023-04-20T07:47:13;97991.63;;;14.57;72.35
50696;BME280;36665;51.786;21.594;2023-04-20T07:55:36;98189.61;;;15.05;72.63
50696;BME280;36665;51.786;21.594;2023-04-20T08:03:59;98225.39;;;15.13;72.44
50696;BME280;36665;51.786;21.594;2023-04-20T08:12:24;98319.23;;;15.36;72.54
50696;BME280;36665;51.786;21.594;2023-04-20T08:20:47;98445.05;;;15.66;72.55
50696;BME280;36665;51.786;21.594;2023-04-20T08:29:10;98505.70;;;15.81;72.20
50696;BME280;36665;51.786;21.594;2023-04-20T08:37:34;98601.30;;;16.03;72.47
50696;BME280;36665;51.786;21.594;2023-04-20T08:45:58;98590.45;;;16.00;72.36
50696;BME280;36665;51.786;21.594;2023-04-20T08:54:23;98618.31;;;16.08;72.17
50696;BME280;36665;51.786;21.594;2023-04-20T09:02:52;98724.59;;;16.34;72.31
50696;BME280;36665;51.786;21.594;2023-04-20T09:11:27;98849.29;;;16.63;72.07
50696;BME280;36665;51.786;21.594;2023-04-20T09:19:53;99003.65;;;17.00;72.11
50696;BME280;36665;51.786;21.594;2023-04-20T09:28:16;99092.61;;;17.21;72.07
50696;BME280;36665;51.786;21.594;2023-04-20T09:36:51;99173.73;;;17.40;71.95
50696;BME280;36665;51.786;21.594;2023-04-20T09:45:17;99254.78;;;17.59;71.97
50696;BME280;36665;51.786;21.594;2023-04-20T09:53:41;99339.09;;;17.80;71.84
50696;BME280;36665;51.786;21.594;2023-04-20T10:02:09;99360.16;;;17.85;71.67
50696;BME280;36665;51.786;21.594;2023-04-20T10:10:47;99392.35;;;17.93;71.61
50696;BME280;36665;51.786;21.594;2023-04-20T10:19:11;99385.59;;;17.93;71.39
50696;BME280;36665;51.786;21.594;2023-04-20T10:27:34;99426.27;;;18.04;71.42
50696;BME280;36665;51.786;21.594;2023-04-20T10:35:57;99433.27;;;18.05;71.27
50696;BME280;36665;51.786;21.594;2023-04-20T10:44:21;99395.02;;;17.97;71.20
50696;BME280;36665;51.786;21.594;2023-04-20T10:52:44;99421.75;;;18.03;71.10
50696;BME280;36665;51.786;21.594;2023-04-20T11:01:08;99390.23;;;17.97;70.89
50696;BME280;36665;51.786;21.594;2023-04-20T11:09:32;99308.36;;;17.76;70.77
50696;BME280;36665;51.786;21.594;2023-04-20T11:18:06;99346.33;;;17.87;70.64
50696;BME280;36665;51.786;21.594;2023-04-20T11:26:37;99517.91;;;18.28;70.59
50696;BME280;36665;51.786;21.594;2023-04-20T11:35:06;99705.15;;;18.72;70.59
50696;BME280;36665;51.786;21.594;2023-04-20T11:43:31;99678.73;;;18.66;70.40
50696;BME280;36665;51.786;21.594;2023-04-20T11:51:54;99372.25;;;17.96;70.21
50696;BME280;36665;51.786;21.594;2023-04-20T12:00:19;99477.45;;;18.21;70.17
50696;BME280;36665;51.786;21.594;2023-04-20T12:08:42;99417.03;;;18.08;70.00
50696;BME280;36665;51.786;21.594;2023-04-20T12:17:06;99264.15;;;17.72;69.82
50696;BME280;36665;51.786;21.594;2023-04-20T12:25:29;99374.16;;;18.00;69.72
50696;BME280;36665;51.786;21.594;2023-04-20T12:33:52;99526.61;;;18.35;69.72
50696;BME280;36665;51.786;21.594;2023-04-20T12:42:15;99609.84;;;18.55;69.59
50696;BME280;36665;51.786;21.594;2023-04-20T12:50:39;99713.58;;;18.80;69.60
50696;BME280;36665;51.786;21.594;2023-04-20T12:59:02;99761.03;;;18.91;69.30
50696;BME280;36665;51.786;21.594;2023-04-20T13:07:25;99571.95;;;18.47;69.25
50696;BME280;36665;51.786;21.594;2023-04-20T13:15:52;99524.98;;;18.38;69.15
50696;BME280;36665;51.786;21.594;2023-04-20T13:24:16;99410.02;;;18.12;69.02
50696;BME280;36665;51.786;21.594;2023-04-20T13:32:40;99439.29;;;18.19;68.92
50696;BME280;36665;51.786;21.594;2023-04-20T13:41:03;99576.59;;;18.52;69.01
50696;BME280;36665;51.786;21.594;2023-04-20T13:49:26;99519.11;;;18.40;68.71
50696;BME280;36665;51.786;21.594;2023-04-20T13:57:49;99562.26;;;18.50;68.51
50696;BME280;36665;51.786;21.594;2023-04-20T14:06:12;99530.05;;;18.44;68.43
50696;BME280;36665;51.786;21.594;2023-04-20T14:14:35;99361.98;;;18.05;68.30
50696;BME280;36665;51.786;21.594;2023-04-20T14:22:58;99221.20;;;17.72;68.18
50696;BME280;36665;51.786;21.594;2023-04-20T14:31:21;99143.80;;;17.54;68.12
50696;BME280;36665;51.786;21.594;2023-04-20T14:39:44;99129.63;;;17.53;67.94
50696;BME280;36665;51.786;21.594;2023-04-20T14:48:07;99313.02;;;17.96;67.98
50696;BME280;36665;51.786;21.594;2023-04-20T14:56:30;99370.69;;;18.10;67.88
50696;BME280;36665;51.786;21.594;2023-04-20T15:04:53;99209.79;;;17.73;67.77
50696;BME280;36665;51.786;21.594;2023-04-20T15:13:16;99069.92;;;17.40;67.62
50696;BME280;36665;51.786;21.594;2023-04-20T15:21:39;98996.73;;;17.25;67.38
50696;BME280;36665;51.786;21.594;2023-04-20T15:30:05;98980.91;;;17.20;67.16
50696;BME280;36665;51.786;21.594;2023-04-20T15:38:28;98919.67;;;17.08;67.18
50696;BME280;36665;51.786;21.594;2023-04-20T15:46:51;98825.59;;;16.86;67.02
50696;BME280;36665;51.786;21.594;2023-04-20T15:55:15;98767.30;;;16.72;67.01
50696;BME280;36665;51.786;21.594;2023-04-20T16:03:38;98704.95;;;16.58;66.77
50696;BME280;36665;51.786;21.594;2023-04-20T16:12:03;98659.40;;;16.47;66.65
50696;BME280;36665;51.786;21.594;2023-04-20T16:20:26;98652.67;;;16.47;66.77
50696;BME280;36665;51.786;21.594;2023-04-20T16:28:49;98629.05;;;16.41;66.46
50696;BME280;36665;51.786;21.594;2023-04-20T16:37:11;98582.98;;;16.31;66.61
50696;BME280;36665;51.786;21.594;2023-04-20T16:45:34;98528.48;;;16.18;66.42
50696;BME280;36665;51.786;21.594;2023-04-20T16:53:59;98446.92;;;15.99;66.26
50696;BME280;36665;51.786;21.594;2023-04-20T17:02:23;98336.88;;;15.73;66.14
50696;BME280;36665;51.786;21.594;2023-04-20T17:10:53;98221.66;;;15.45;66.04
50696;BME280;36665;51.786;21.594;2023-04-20T17:19:16;98090.45;;;15.14;66.02
50696;BME280;36665;51.786;21.594;2023-04-20T17:27:40;97970.04;;;14.85;65.93
50696;BME280;36665;51.786;21.594;2023-04-20T17:36:03;97852.88;;;14.56;65.68
50696;BME280;36665;51.786;21.594;2023-04-20T17:44:26;97735.08;;;14.28;65.47
50696;BME280;36665;51.786;21.594;2023-04-20T17:52:49;97593.95;;;13.94;65.37
50696;BME280;36665;51.786;21.594;2023-04-20T18:01:14;97455.66;;;13.59;65.23
50696;BME280;36665;51.786;21.594;2023-04-20T18:09:37;97278.17;;;13.16;64.95
50696;BME280;36665;51.786;21.594;2023-04-20T18:18:01;97093.81;;;12.69;65.04
50696;BME280;36665;51.786;21.594;2023-04-20T18:26:24;96893.27;;;12.20;64.87
50696;BME280;36665;51.786;21.594;2023-04-20T18:34:47;96723.68;;;11.77;64.58
50696;BME280;36665;51.786;21.594;2023-04-20T18:43:10;96569.98;;;11.38;64.39
50696;BME280;36665;51.786;21.594;2023-04-20T18:51:33;96442.90;;;11.06;64.38
50696;BME280;36665;51.786;21.594;2023-04-20T18:59:56;96320.21;;;10.76;64.19
50696;BME280;36665;51.786;21.594;2023-04-20T19:08:19;96194.20;;;10.44;64.09
50696;BME280;36665;51.786;21.594;2023-04-20T19:16:42;96086.95;;;10.18;64.07
50696;BME280;36665;51.786;21.594;2023-04-20T19:25:05;96002.02;;;9.95;63.97
50696;BME280;36665;51.786;21.594;2023-04-20T19:33:28;96008.70;;;9.97;63.88
50696;BME280;36665;51.786;21.594;2023-04-20T19:41:52;96078.48;;;10.17;64.00
50696;BME280;36665;51.786;21.594;2023-04-20T19:50:14;96178.14;;;10.43;63.91
50696;BME280;36665;51.786;21.594;2023-04-20T19:58:38;96243.17;;;10.59;63.90
50696;BME280;36665;51.786;21.594;2023-04-20T20:07:01;96248.58;;;10.61;63.73
50696;BME280;36665;51.786;21.594;2023-04-20T20:15:24;96214.73;;;10.52;63.80
50696;BME280;36665;51.786;21.594;2023-04-20T20:23:47;96172.41;;;10.43;63.95
50696;BME280;36665;51.786;21.594;2023-04-20T20:32:10;96138.20;;;10.34;63.70
50696;BME280;36665;51.786;21.594;2023-04-20T20:40:33;96091.58;;;10.22;63.80
50696;BME280;36665;51.786;21.594;2023-04-20T20:48:57;96034.44;;;10.09;63.67
50696;BME280;36665;51.786;21.594;2023-04-20T20:57:22;95990.65;;;9.98;63.47
50696;BME280;36665;51.786;21.594;2023-04-20T21:05:45;95920.10;;;9.79;63.54
50696;BME280;36665;51.786;21.594;2023-04-20T21:14:08;95832.70;;;9.57;63.30
50696;BME280;36665;51.786;21.594;2023-04-20T21:22:31;95741.74;;;9.34;63.45
50696;BME280;36665;51.786;21.594;2023-04-20T21:30:54;95656.65;;;9.12;63.26
50696;BME280;36665;51.786;21.594;2023-04-20T21:39:17;95557.87;;;8.87;63.17
50696;BME280;36665;51.786;21.594;2023-04-20T21:47:40;95462.15;;;8.62;63.15
50696;BME280;36665;51.786;21.594;2023-04-20T21:56:04;95358.27;;;8.34;62.93
50696;BME280;36665;51.786;21.594;2023-04-20T22:04:27;95297.40;;;8.19;63.00
50696;BME280;36665;51.786;21.594;2023-04-20T22:12:50;95247.69;;;8.07;63.05
50696;BME280;36665;51.786;21.594;2023-04-20T22:21:13;95200.22;;;7.95;62.97
50696;BME280;36665;51.786;21.594;2023-04-20T22:29:36;95161.48;;;7.84;62.91
50696;BME280;36665;51.786;21.594;2023-04-20T22:37:59;95122.02;;;7.75;62.81
50696;BME280;36665;51.786;21.594;2023-04-20T22:46:22;95101.33;;;7.68;62.77
50696;BME280;36665;51.786;21.594;2023-04-20T22:54:45;95072.47;;;7.62;62.89
50696;BME280;36665;51.786;21.594;2023-04-20T23:03:10;95027.77;;;7.50;62.76
50696;BME280;36665;51.786;21.594;2023-04-20T23:11:33;94961.09;;;7.33;62.62
50696;BME280;36665;51.786;21.594;2023-04-20T23:20:00;94889.08;;;7.15;62.64
50696;BME280;36665;51.786;21.594;2023-04-20T23:28:23;94830.71;;;6.99;62.84
50696;BME280;36665;51.786;21.594;2023-04-20T23:36:46;94821.02;;;6.96;62.50
50696;BME280;36665;51.786;21.594;2023-04-20T23:45:09;94880.03;;;7.13;62.61
50696;BME280;36665;51.786;21.594;2023-04-20T23:53:36;94963.88;;;7.35;62.62
